This is the latest recevied weather packets stored in our database for station/object CW79215. If no packets are shown the sender has not sent any weather packets the latest 10 day(s).
| Time | Temp. | Humidity | Pressure | Rain* | Wind** | Luminosity | Snow |
|---|---|---|---|---|---|---|---|
| 1777714630 | 22.78° C | 37% | 1025.3 hPa | - | - | - | - |
| 1777713730 | 23.33° C | 37% | 1025.5 hPa | - | - | - | - |
| 1777712830 | 22.78° C | 38% | 1025.6 hPa | - | - | - | - |
| 1777711929 | 22.22° C | 36% | 1025.7 hPa | - | - | - | - |
| 1777711029 | 22.78° C | 34% | 1025.6 hPa | - | - | - | - |
| 1777710129 | 22.22° C | 33% | 1025.7 hPa | - | - | - | - |
| 1777709229 | 21.67° C | 34% | 1025.9 hPa | - | - | - | - |
| 1777708329 | 21.11° C | 36% | 1026 hPa | - | - | - | - |
| 1777707429 | 20.56° C | 37% | 1026.1 hPa | - | - | - | - |
| 1777706529 | 20° C | 38% | 1026.2 hPa | - | - | - | - |
| 1777705629 | 18.33° C | 40% | 1026.3 hPa | - | - | - | - |
| 1777704728 | 16.11° C | 45% | 1026.5 hPa | - | - | - | - |
| 1777703839 | 16.11° C | 45% | 1026.6 hPa | - | - | - | - |
| 1777702938 | 13.33° C | 49% | 1026.7 hPa | - | - | - | - |
| 1777702038 | 13.33° C | 49% | 1026.7 hPa | - | - | - | - |
| 1777701138 | 11.11° C | 56% | 1026.8 hPa | - | - | - | - |
| 1777700238 | 10.56° C | 57% | 1026.9 hPa | - | - | - | - |
| 1777699338 | 9.44° C | 60% | 1026.9 hPa | - | - | - | - |
| 1777698438 | 9.44° C | 60% | 1026.9 hPa | - | - | - | - |
| 1777697538 | 8.33° C | 64% | 1026.9 hPa | - | - | - | - |
| 1777696638 | 7.78° C | 66% | 1026.9 hPa | - | - | - | - |
| 1777695738 | 7.78° C | 66% | 1026.8 hPa | - | - | - | - |
| 1777694838 | 7.78° C | 67% | 1026.9 hPa | - | - | - | - |
| 1777693938 | 7.78° C | 65% | 1026.9 hPa | - | - | - | - |
| 1777693038 | 7.22° C | 66% | 1026.9 hPa | - | - | - | - |
* Rain since midnight (hover to see other rain measurements)
** Current wind speed in m/s (hover to see current wind gust speed)